Date,TemperatureHighF,TemperatureAvgF,TemperatureLowF,DewpointHighF,DewpointAvgF,DewpointLowF,HumidityHigh,HumidityAvg,HumidityLow,PressureMaxIn,PressureMinIn,WindSpeedMaxMPH,WindSpeedAvgMPH,GustSpeedMaxMPH,PrecipitationSumIn
2013-10-1,69,60,54,42,38,34,55,45,31,0.00,40.00,32,25,40,0.00
2013-10-2,64,54,46,45,38,28,95,60,27,0.00,40.00,34,25,49,0.00
2013-10-3,57,50,44,37,24,12,60,38,20,0.00,40.00,33,22,62,0.00
2013-10-4,57,49,43,19,3,-4,33,16,10,0.00,40.00,20,13,42,0.00
2013-10-5,59,51,44,8,5,0,20,15,10,0.00,40.00,22,14,41,0.00
2013-10-6,64,57,49,5,0,-10,15,10,6,0.00,40.00,16,10,27,0.00
2013-10-7,72,60,52,10,2,-6,14,10,7,0.00,40.00,29,9,42,0.00
2013-10-8,63,54,47,20,14,4,31,21,12,0.00,40.00,34,21,49,0.00
2013-10-9,49,40,32,36,29,17,96,67,30,0.00,40.00,34,17,48,0.00
2013-10-10,53,40,32,34,30,23,95,68,42,0.00,40.00,21,17,28,0.00
2013-10-11,61,49,40,32,28,21,66,46,26,0.00,40.00,20,9,25,0.00
2013-10-12,61,49,42,33,21,-100,63,37,15,0.00,40.00,26,14,44,0.00
2013-10-13,54,46,40,35,30,23,76,54,38,0.00,40.00,37,18,49,0.00
2013-10-14,56,48,41,25,22,17,50,36,26,0.00,40.00,13,8,22,0.00
2013-10-15,58,51,44,23,19,16,36,28,21,0.00,40.00,17,10,31,0.00
2013-10-16,59,50,42,16,12,5,30,22,12,0.00,40.00,12,7,31,0.00
2013-10-17,68,54,46,27,17,5,38,25,13,0.00,40.00,20,11,25,0.00
2013-10-18,65,57,48,25,10,3,38,16,9,0.00,40.00,12,6,23,0.00
2013-10-19,70,60,53,15,5,-100,16,12,8,0.00,40.00,22,6,25,0.00
2013-10-20,71,60,51,16,7,-2,19,12,7,0.00,40.00,22,10,26,0.00
2013-10-21,68,60,55,12,7,1,16,12,9,0.00,40.00,18,9,27,0.00
2013-10-22,65,58,52,15,12,7,19,16,13,0.00,40.00,16,9,29,0.00
2013-10-23,67,58,52,16,13,10,21,17,12,0.00,40.00,10,6,22,0.00
2013-10-24,70,59,53,27,14,5,27,18,10,0.00,40.00,18,9,19,0.00
2013-10-25,71,59,49,27,17,9,38,21,11,0.00,40.00,19,10,22,0.00
2013-10-26,67,61,54,18,10,-100,21,14,11,0.00,40.00,10,7,22,0.00
2013-10-27,65,57,45,34,20,12,64,26,14,0.00,40.00,53,20,61,0.00
2013-10-28,45,34,31,34,29,21,97,83,43,0.00,40.00,53,22,72,0.00
2013-10-29,38,33,31,32,31,28,97,93,75,0.00,40.00,29,11,49,0.04
2013-10-30,53,39,32,33,28,24,97,70,37,0.00,40.00,17,8,24,0.01
2013-10-31,54,47,40,27,16,9,57,30,20,0.00,40.00,10,6,17,0.00